Terminal Aerodrome Forecast
Issued by NWS Upton, NY

Home | Current Version | Previous Version | Text Only | Print | Product List | Glossary On
Versions: 1 2 3 4 5 6 7 8 9 10 11 12 13 14 15 16 17 18 19 20 21 22 23 24 25 26 27 28 29 30 31 32 33 34 35 36 37 38 39
000
FTUS41 KOKX 170800 AAA
TAFJFK
TAF AMD
KJFK 170832Z 1709/1812 04008KT P6SM FEW250
     FM171200 06015KT P6SM FEW040 SCT250
     FM171900 09020KT P6SM FEW040 SCT250
     FM180200 06014KT P6SM FEW040 BKN250
     FM180900 06008KT P6SM FEW020 BKN250=

USA.gov is the U.S. government's official web portal to all federal, state and local government web resources and services.